createdAt,value
2022-12-14T00:01:49.210Z,1.00
2022-12-14T00:04:17.798Z,0.90
2022-12-14T00:06:45.166Z,0.90
2022-12-14T00:09:11.898Z,0.90
2022-12-14T00:11:38.640Z,0.90
2022-12-14T00:14:05.429Z,1.00
2022-12-14T00:16:33.288Z,1.00
2022-12-14T00:19:00.672Z,1.00
2022-12-14T00:21:27.635Z,1.00
2022-12-14T00:23:54.757Z,1.00
2022-12-14T00:26:23.425Z,1.00
2022-12-14T00:28:51.390Z,1.00
2022-12-14T00:31:21.554Z,0.90
2022-12-14T00:33:48.812Z,0.90
2022-12-14T00:36:15.533Z,0.90
2022-12-14T00:38:42.500Z,0.80
2022-12-14T00:41:09.577Z,0.80
2022-12-14T00:43:36.345Z,0.70
2022-12-14T00:46:03.265Z,0.70
2022-12-14T00:48:32.115Z,0.70
2022-12-14T00:50:59.243Z,0.70
2022-12-14T00:53:26.117Z,0.60
2022-12-14T00:55:52.998Z,0.60
2022-12-14T00:58:21.380Z,0.60
2022-12-14T01:00:48.708Z,0.60
2022-12-14T01:03:15.586Z,0.50
2022-12-14T01:05:49.185Z,0.50
2022-12-14T01:08:16.251Z,0.50
2022-12-14T01:10:43.044Z,0.50
2022-12-14T01:13:11.056Z,0.60
2022-12-14T01:15:37.961Z,0.60
2022-12-14T01:18:05.328Z,0.60
2022-12-14T01:20:32.296Z,0.60
2022-12-14T01:22:59.108Z,0.60
2022-12-14T01:25:25.949Z,0.60
2022-12-14T01:27:52.883Z,0.70
2022-12-14T01:30:19.839Z,0.70
2022-12-14T01:32:47.392Z,0.70
2022-12-14T01:35:14.710Z,0.70
2022-12-14T01:37:41.558Z,0.70
2022-12-14T01:40:08.808Z,0.70
2022-12-14T01:42:36.710Z,0.70
2022-12-14T01:45:03.844Z,0.80
2022-12-14T01:47:36.523Z,0.80
2022-12-14T01:50:08.845Z,0.70
2022-12-14T01:52:41.278Z,0.70
2022-12-14T01:55:20.177Z,0.70
2022-12-14T01:58:20.053Z,0.70
2022-12-14T02:00:46.851Z,0.70
2022-12-14T02:03:18.251Z,0.70
2022-12-14T02:05:47.973Z,0.70
2022-12-14T02:08:14.917Z,0.70
2022-12-14T02:10:42.164Z,0.70
2022-12-14T02:13:22.920Z,0.60
2022-12-14T02:15:50.403Z,0.60
2022-12-14T02:18:19.522Z,0.60
2022-12-14T02:21:02.346Z,0.60
2022-12-14T02:24:01.820Z,0.60
2022-12-14T02:26:50.596Z,0.60
2022-12-14T02:29:49.414Z,0.60
2022-12-14T02:32:34.432Z,0.50
2022-12-14T02:35:19.775Z,0.50
2022-12-14T02:38:21.929Z,0.50
2022-12-14T02:41:03.514Z,0.50
2022-12-14T02:43:54.638Z,0.50
2022-12-14T02:46:29.605Z,0.40
2022-12-14T02:48:58.094Z,0.40
2022-12-14T02:51:46.029Z,0.40
2022-12-14T02:54:17.038Z,0.30
2022-12-14T02:56:47.690Z,0.30
2022-12-14T02:59:14.710Z,0.30
2022-12-14T03:01:42.017Z,0.30
2022-12-14T03:04:14.217Z,0.30
2022-12-14T03:06:54.043Z,0.30
2022-12-14T03:09:20.740Z,0.30
2022-12-14T03:12:01.391Z,0.20
2022-12-14T03:14:31.930Z,0.20
2022-12-14T03:17:03.602Z,0.20
2022-12-14T03:19:37.721Z,0.20
2022-12-14T03:22:11.108Z,0.10
2022-12-14T03:25:06.541Z,0.10
2022-12-14T03:27:35.376Z,0.10
2022-12-14T03:30:05.373Z,0.00
2022-12-14T03:32:32.199Z,-0.10
2022-12-14T03:35:02.881Z,-0.10
2022-12-14T03:37:38.407Z,-0.10
2022-12-14T03:40:09.610Z,-0.20
2022-12-14T03:42:49.394Z,-0.20
2022-12-14T03:45:28.159Z,-0.20
2022-12-14T03:48:00.519Z,-0.30
2022-12-14T03:50:33.530Z,-0.30
2022-12-14T03:53:22.958Z,-0.30
2022-12-14T03:56:23.367Z,-0.30
2022-12-14T03:59:32.553Z,-0.40
2022-12-14T04:02:09.708Z,-0.40
2022-12-14T04:04:44.236Z,-0.50
2022-12-14T04:07:11.040Z,-0.60
2022-12-14T04:10:02.335Z,-0.60
2022-12-14T04:12:53.128Z,-0.70
2022-12-14T04:15:50.873Z,-0.70
2022-12-14T04:18:50.520Z,-0.80
2022-12-14T04:21:39.930Z,-0.80
2022-12-14T04:24:59.078Z,-0.80
2022-12-14T04:27:31.634Z,-0.80
2022-12-14T04:29:59.296Z,-0.80
2022-12-14T04:32:28.830Z,-0.90
2022-12-14T04:35:03.614Z,-0.90
2022-12-14T04:37:30.416Z,-1.00
2022-12-14T04:40:24.653Z,-1.00
2022-12-14T04:42:54.274Z,-1.00
2022-12-14T04:45:25.049Z,-1.00
2022-12-14T04:48:00.150Z,-1.00
2022-12-14T04:50:31.855Z,-1.00
2022-12-14T04:53:02.665Z,-1.00
2022-12-14T04:55:39.929Z,-1.10
2022-12-14T04:58:13.049Z,-1.10
2022-12-14T05:01:19.184Z,-1.10
2022-12-14T05:04:03.981Z,-1.20
2022-12-14T05:06:56.057Z,-1.20
2022-12-14T05:09:27.292Z,-1.20
2022-12-14T05:12:19.507Z,-1.30
2022-12-14T05:15:10.871Z,-1.30
2022-12-14T05:17:38.266Z,-1.40
2022-12-14T05:20:05.853Z,-1.40
2022-12-14T05:22:32.648Z,-1.50
2022-12-14T05:24:59.854Z,-1.50
2022-12-14T05:27:26.554Z,-1.60
2022-12-14T05:29:53.268Z,-1.60
2022-12-14T05:32:20.423Z,-1.50
2022-12-14T05:34:47.130Z,-1.50
2022-12-14T05:37:18.191Z,-1.40
2022-12-14T05:39:45.222Z,-1.40
2022-12-14T05:42:11.989Z,-1.40
2022-12-14T05:44:39.175Z,-1.30
2022-12-14T05:47:06.062Z,-1.30
2022-12-14T05:49:32.874Z,-1.30
2022-12-14T05:51:59.704Z,-1.30
2022-12-14T05:54:27.284Z,-1.30
2022-12-14T05:56:54.114Z,-1.30
2022-12-14T05:59:20.901Z,-1.30
2022-12-14T06:01:49.610Z,-1.30
2022-12-14T06:04:18.791Z,-1.30
2022-12-14T06:06:45.695Z,-1.30
2022-12-14T06:09:18.075Z,-1.30
2022-12-14T06:11:45.323Z,-1.30
2022-12-14T06:14:12.476Z,-1.40
2022-12-14T06:16:43.959Z,-1.40
2022-12-14T06:19:11.636Z,-1.40
2022-12-14T06:21:39.820Z,-1.40
2022-12-14T06:24:07.165Z,-1.40
2022-12-14T06:26:36.846Z,-1.40
2022-12-14T06:29:03.975Z,-1.40
2022-12-14T06:31:31.423Z,-1.40
2022-12-14T06:33:59.405Z,-1.40
2022-12-14T06:36:34.013Z,-1.40
2022-12-14T06:39:05.355Z,-1.50
2022-12-14T06:41:32.144Z,-1.50
2022-12-14T06:44:05.514Z,-1.50
2022-12-14T06:46:32.363Z,-1.50
2022-12-14T06:48:59.149Z,-1.50
2022-12-14T06:51:26.159Z,-1.50
2022-12-14T06:53:54.501Z,-1.50
2022-12-14T06:56:22.170Z,-1.50
2022-12-14T06:58:49.358Z,-1.50
2022-12-14T07:01:21.252Z,-1.50
2022-12-14T07:03:50.121Z,-1.50
2022-12-14T07:06:17.634Z,-1.50
2022-12-14T07:08:44.395Z,-1.60
2022-12-14T07:11:12.671Z,-1.60
2022-12-14T07:13:39.701Z,-1.50
2022-12-14T07:16:07.099Z,-1.50
2022-12-14T07:18:34.093Z,-1.50
2022-12-14T07:21:01.706Z,-1.50
2022-12-14T07:23:30.004Z,-1.50
2022-12-14T07:26:09.450Z,-1.60
2022-12-14T07:28:38.892Z,-1.60
2022-12-14T07:31:13.475Z,-1.60
2022-12-14T07:33:40.150Z,-1.60
2022-12-14T07:36:08.738Z,-1.60
2022-12-14T07:38:36.401Z,-1.60
2022-12-14T07:41:22.046Z,-1.60
2022-12-14T07:43:50.296Z,-1.60
2022-12-14T07:46:19.122Z,-1.60
2022-12-14T07:48:46.709Z,-1.60
2022-12-14T07:51:14.327Z,-1.50
2022-12-14T07:53:41.146Z,-1.60
2022-12-14T07:56:12.397Z,-1.60
2022-12-14T07:58:39.221Z,-1.60
2022-12-14T08:01:16.003Z,-1.60
2022-12-14T08:03:56.414Z,-1.60
2022-12-14T08:06:24.442Z,-1.60
2022-12-14T08:08:51.707Z,-1.60
2022-12-14T08:11:18.831Z,-1.60
2022-12-14T08:13:46.878Z,-1.60
2022-12-14T08:16:14.996Z,-1.60
2022-12-14T08:18:42.322Z,-1.60
2022-12-14T08:21:09.865Z,-1.60
2022-12-14T08:23:36.640Z,-1.60
2022-12-14T08:26:04.651Z,-1.60
2022-12-14T08:28:31.614Z,-1.50
2022-12-14T08:30:58.593Z,-1.50
2022-12-14T08:33:25.291Z,-1.50
2022-12-14T08:35:52.027Z,-1.50
2022-12-14T08:38:18.699Z,-1.40
2022-12-14T08:40:45.491Z,-1.40
2022-12-14T08:43:12.636Z,-1.40
2022-12-14T08:45:39.338Z,-1.40
2022-12-14T08:48:06.194Z,-1.30
2022-12-14T08:50:32.964Z,-1.30
2022-12-14T08:52:59.710Z,-1.30
2022-12-14T08:55:30.180Z,-1.30
2022-12-14T08:57:59.746Z,-1.30
2022-12-14T09:00:26.600Z,-1.20
2022-12-14T09:02:54.444Z,-1.20
2022-12-14T09:05:21.298Z,-1.20
2022-12-14T09:07:47.950Z,-1.10
2022-12-14T09:10:15.312Z,-1.10
2022-12-14T09:12:41.998Z,-1.00
2022-12-14T09:15:11.917Z,-0.90
2022-12-14T09:17:38.553Z,-0.90
2022-12-14T09:20:06.300Z,-0.90
2022-12-14T09:22:33.044Z,-0.80
2022-12-14T09:24:59.718Z,-0.80
2022-12-14T09:27:26.420Z,-0.80
2022-12-14T09:29:53.354Z,-0.80
2022-12-14T09:32:20.367Z,-0.80
2022-12-14T09:34:47.101Z,-0.80
2022-12-14T09:37:14.384Z,-0.70
2022-12-14T09:39:41.125Z,-0.70
2022-12-14T09:42:36.036Z,-0.60
2022-12-14T09:45:05.941Z,-0.50
2022-12-14T09:47:43.106Z,-0.50
2022-12-14T09:50:17.342Z,-0.50
2022-12-14T09:52:54.738Z,-0.40
2022-12-14T09:55:33.698Z,-0.30
2022-12-14T09:58:18.608Z,-0.30
2022-12-14T10:01:03.398Z,-0.30
2022-12-14T10:03:42.709Z,-0.30
2022-12-14T10:06:34.305Z,-0.30
2022-12-14T10:09:22.236Z,-0.20
2022-12-14T10:11:55.763Z,-0.10
2022-12-14T10:14:25.523Z,0.00
2022-12-14T10:17:10.442Z,0.00
2022-12-14T10:19:53.751Z,0.10
2022-12-14T10:22:37.821Z,0.10
2022-12-14T10:25:07.190Z,0.20
2022-12-14T10:27:53.875Z,0.20
2022-12-14T10:30:23.677Z,0.30
2022-12-14T10:32:54.219Z,0.40
2022-12-14T10:35:53.552Z,0.40
2022-12-14T10:38:41.550Z,0.50
2022-12-14T10:41:36.399Z,0.60
2022-12-14T10:44:32.308Z,0.70
2022-12-14T10:47:23.898Z,0.60
2022-12-14T10:50:01.831Z,0.70
2022-12-14T10:52:34.654Z,0.80
2022-12-14T10:55:07.137Z,0.80
2022-12-14T10:57:33.867Z,0.80
2022-12-14T11:00:09.105Z,0.90
2022-12-14T11:02:50.032Z,0.90
2022-12-14T11:05:39.227Z,0.90
2022-12-14T11:08:09.255Z,0.90
2022-12-14T11:10:37.076Z,1.00
2022-12-14T11:13:06.810Z,1.00
2022-12-14T11:15:38.926Z,1.10
2022-12-14T11:18:18.105Z,1.00
2022-12-14T11:20:57.759Z,1.10
2022-12-14T11:23:29.672Z,1.20
2022-12-14T11:26:01.031Z,1.20
2022-12-14T11:28:50.750Z,1.20
2022-12-14T11:31:20.918Z,1.10
2022-12-14T11:33:50.433Z,1.10
2022-12-14T11:36:30.995Z,1.10
2022-12-14T11:38:59.765Z,1.10
2022-12-14T11:41:32.790Z,1.20
2022-12-14T11:44:07.186Z,1.30
2022-12-14T11:46:52.916Z,1.30
2022-12-14T11:49:24.552Z,1.20
2022-12-14T11:52:12.937Z,1.20
2022-12-14T11:54:50.145Z,1.20
2022-12-14T11:57:21.822Z,1.20
2022-12-14T12:00:18.459Z,1.10
2022-12-14T12:02:50.949Z,1.10
2022-12-14T12:05:20.153Z,1.10
2022-12-14T12:07:49.913Z,1.20
2022-12-14T12:10:21.456Z,1.20
2022-12-14T12:12:52.642Z,1.30
2022-12-14T12:15:36.407Z,1.30
2022-12-14T12:18:09.141Z,1.40
2022-12-14T12:20:39.223Z,1.50
2022-12-14T12:23:16.282Z,1.60
2022-12-14T12:25:43.261Z,1.70
2022-12-14T12:28:25.686Z,1.70
2022-12-14T12:30:54.897Z,1.70
2022-12-14T12:33:35.336Z,1.70
2022-12-14T12:36:04.483Z,1.80
2022-12-14T12:38:49.744Z,1.80
2022-12-14T12:41:29.595Z,1.80
2022-12-14T12:44:19.789Z,1.70
2022-12-14T12:47:27.376Z,1.60
2022-12-14T12:50:06.613Z,1.70
2022-12-14T12:53:03.560Z,1.60
2022-12-14T12:55:42.103Z,1.40
2022-12-14T13:01:32.785Z,1.50
2022-12-14T13:04:10.479Z,1.50
2022-12-14T13:06:41.307Z,1.60
2022-12-14T13:09:36.440Z,1.60
2022-12-14T13:12:05.096Z,1.60
2022-12-14T13:14:37.663Z,1.70
2022-12-14T13:17:06.369Z,1.60
2022-12-14T13:19:54.567Z,1.60
2022-12-14T13:22:29.339Z,1.60
2022-12-14T13:24:59.803Z,1.70
2022-12-14T13:27:49.826Z,1.70
2022-12-14T13:30:19.851Z,1.70
2022-12-14T13:33:09.045Z,1.70
2022-12-14T13:35:47.596Z,1.80
2022-12-14T13:38:20.410Z,1.70
2022-12-14T13:41:09.776Z,1.90
2022-12-14T13:44:18.450Z,1.80
2022-12-14T13:46:45.656Z,1.70
2022-12-14T13:49:19.475Z,1.60
2022-12-14T13:51:50.048Z,1.60
2022-12-14T13:54:38.515Z,1.50
2022-12-14T13:57:09.851Z,1.40
2022-12-14T13:59:42.260Z,1.40
2022-12-14T14:02:28.000Z,1.50
2022-12-14T14:05:18.720Z,1.60
2022-12-14T14:07:50.601Z,1.40
2022-12-14T14:10:34.358Z,1.40
2022-12-14T14:13:02.134Z,1.30
2022-12-14T14:15:34.301Z,1.20
2022-12-14T14:18:23.301Z,1.10
2022-12-14T14:21:14.654Z,0.90
2022-12-14T14:24:20.938Z,0.80
2022-12-14T14:27:11.575Z,0.60
2022-12-14T14:29:45.126Z,0.60
2022-12-14T14:32:39.053Z,0.50
2022-12-14T14:35:25.540Z,0.50
2022-12-14T14:38:00.016Z,0.50
2022-12-14T14:40:58.307Z,0.40
2022-12-14T14:43:28.596Z,0.40
2022-12-14T14:45:56.458Z,0.40
2022-12-14T14:48:40.639Z,0.30
2022-12-14T14:51:16.193Z,0.30
2022-12-14T14:53:43.496Z,0.20
2022-12-14T14:56:34.070Z,0.10
2022-12-14T14:59:19.341Z,0.00
2022-12-14T15:01:58.093Z,-0.10
2022-12-14T15:04:51.523Z,-0.10
2022-12-14T15:07:38.743Z,-0.10
2022-12-14T15:10:31.422Z,-0.20
2022-12-14T15:13:08.891Z,-0.20
2022-12-14T15:16:06.518Z,-0.20
2022-12-14T15:18:33.348Z,-0.10
2022-12-14T15:21:02.197Z,-0.10
2022-12-14T15:23:40.953Z,-0.20
2022-12-14T15:26:31.781Z,-0.20
2022-12-14T15:29:00.685Z,-0.20
2022-12-14T15:31:59.735Z,-0.30
2022-12-14T15:34:27.149Z,-0.30
2022-12-14T15:36:55.001Z,-0.30
2022-12-14T15:39:28.642Z,-0.30
2022-12-14T15:42:03.242Z,-0.40
2022-12-14T15:44:30.059Z,-0.30
2022-12-14T15:46:57.220Z,-0.30
2022-12-14T15:49:24.228Z,-0.30
2022-12-14T15:51:51.233Z,-0.30
2022-12-14T15:54:19.924Z,-0.30
2022-12-14T15:56:57.595Z,-0.30
2022-12-14T15:59:35.248Z,-0.30
2022-12-14T16:02:30.340Z,-0.30
2022-12-14T16:05:01.303Z,-0.30
2022-12-14T16:07:36.664Z,-0.30
2022-12-14T16:10:04.842Z,-0.20
2022-12-14T16:12:46.147Z,-0.20
2022-12-14T16:15:24.080Z,-0.20
2022-12-14T16:17:55.999Z,-0.20
2022-12-14T16:20:30.275Z,-0.10
2022-12-14T16:23:02.017Z,-0.10
2022-12-14T16:25:30.313Z,0.00
2022-12-14T16:27:57.092Z,0.00
2022-12-14T16:30:32.644Z,0.00
2022-12-14T16:33:17.969Z,0.10
2022-12-14T16:35:46.292Z,0.20
2022-12-14T16:38:17.433Z,0.20
2022-12-14T16:40:53.795Z,0.20
2022-12-14T16:43:53.173Z,0.20
2022-12-14T16:46:20.092Z,0.20
2022-12-14T16:49:07.669Z,0.30
2022-12-14T16:52:05.880Z,0.30
2022-12-14T16:54:33.553Z,0.30
2022-12-14T16:57:03.353Z,0.40
2022-12-14T16:59:55.978Z,0.40
2022-12-14T17:02:31.627Z,0.50
2022-12-14T17:05:04.350Z,0.50
2022-12-14T17:07:31.592Z,0.60
2022-12-14T17:09:58.465Z,0.50
2022-12-14T17:12:25.717Z,0.50
2022-12-14T17:14:52.477Z,0.50
2022-12-14T17:17:23.558Z,0.50
2022-12-14T17:19:51.370Z,0.60
2022-12-14T17:22:23.162Z,0.60
2022-12-14T17:24:50.315Z,0.60
2022-12-14T17:27:17.577Z,0.60
2022-12-14T17:29:44.353Z,0.70
2022-12-14T17:32:11.957Z,0.70
2022-12-14T17:34:38.806Z,0.80
2022-12-14T17:37:18.246Z,0.80
2022-12-14T17:39:45.179Z,0.80
2022-12-14T17:42:13.248Z,0.80
2022-12-14T17:44:41.475Z,0.80
2022-12-14T17:47:11.457Z,0.90
2022-12-14T17:49:39.230Z,0.90
2022-12-14T17:52:07.259Z,0.90
2022-12-14T17:54:36.745Z,0.90
2022-12-14T17:57:05.621Z,1.00
2022-12-14T17:59:32.860Z,1.00
2022-12-14T18:01:59.974Z,1.00
2022-12-14T18:04:26.807Z,1.00
2022-12-14T18:06:53.506Z,1.00
2022-12-14T18:09:20.291Z,1.00
2022-12-14T18:12:14.333Z,1.10
2022-12-14T18:14:33.819Z,1.10
2022-12-14T18:17:00.967Z,1.00
2022-12-14T18:19:29.958Z,1.00
2022-12-14T18:21:57.141Z,1.00
2022-12-14T18:24:26.136Z,1.10
2022-12-14T18:26:53.088Z,1.10
2022-12-14T18:29:20.231Z,1.10
2022-12-14T18:31:49.672Z,1.10
2022-12-14T18:34:16.729Z,1.10
2022-12-14T18:36:43.525Z,1.20
2022-12-14T18:39:10.414Z,1.20
2022-12-14T18:41:37.769Z,1.20
2022-12-14T18:44:05.296Z,1.20
2022-12-14T18:46:36.046Z,1.20
2022-12-14T18:49:03.340Z,1.20
2022-12-14T18:51:30.113Z,1.20
2022-12-14T18:53:57.990Z,1.20
2022-12-14T18:56:26.073Z,1.20
2022-12-14T18:58:52.933Z,1.20
2022-12-14T19:01:21.729Z,1.20
2022-12-14T19:03:49.010Z,1.20
2022-12-14T19:09:11.281Z,1.30
2022-12-14T19:11:40.260Z,1.30
2022-12-14T19:14:08.469Z,1.30
2022-12-14T19:16:35.242Z,1.30
2022-12-14T19:19:01.989Z,1.30
2022-12-14T19:21:29.788Z,1.30
2022-12-14T19:24:00.038Z,1.30
2022-12-14T19:26:31.586Z,1.30
2022-12-14T19:28:58.779Z,1.30
2022-12-14T19:31:27.452Z,1.30
2022-12-14T19:33:54.396Z,1.30
2022-12-14T19:36:21.265Z,1.30
2022-12-14T19:38:49.538Z,1.30
2022-12-14T19:41:17.860Z,1.30
2022-12-14T19:43:44.647Z,1.30
2022-12-14T19:46:12.252Z,1.20
2022-12-14T19:48:39.258Z,1.20
2022-12-14T19:51:12.619Z,1.20
2022-12-14T19:53:40.299Z,1.20
2022-12-14T19:56:08.927Z,1.20
2022-12-14T19:58:35.777Z,1.10
2022-12-14T20:01:07.012Z,1.00
2022-12-14T20:03:34.767Z,0.90
2022-12-14T20:06:02.885Z,0.90
2022-12-14T20:08:30.243Z,0.80
2022-12-14T20:10:57.790Z,0.80
2022-12-14T20:13:25.577Z,0.70
2022-12-14T20:15:53.971Z,0.60
2022-12-14T20:18:21.449Z,0.60
2022-12-14T20:20:49.824Z,0.50
2022-12-14T20:23:17.963Z,0.50
2022-12-14T20:25:44.925Z,0.50
2022-12-14T20:28:11.694Z,0.40
2022-12-14T20:30:45.966Z,0.40
2022-12-14T20:33:13.143Z,0.30
2022-12-14T20:35:40.152Z,0.30
2022-12-14T20:38:06.932Z,0.20
2022-12-14T20:40:38.551Z,0.20
2022-12-14T20:43:06.835Z,0.20
2022-12-14T20:45:40.525Z,0.10
2022-12-14T20:48:07.549Z,0.10
2022-12-14T20:50:35.792Z,0.10
2022-12-14T20:53:04.209Z,0.10
2022-12-14T20:55:30.986Z,0.00
2022-12-14T20:57:57.870Z,0.00
2022-12-14T21:00:25.193Z,0.00
2022-12-14T21:02:52.188Z,0.00
2022-12-14T21:05:19.037Z,-0.10
2022-12-14T21:07:45.799Z,-0.10
2022-12-14T21:10:12.521Z,-0.20
2022-12-14T21:12:39.184Z,-0.20
2022-12-14T21:15:06.345Z,-0.30
2022-12-14T21:17:33.694Z,-0.30
2022-12-14T21:20:00.406Z,-0.30
2022-12-14T21:22:27.948Z,-0.30
2022-12-14T21:25:04.234Z,-0.40
2022-12-14T21:27:32.669Z,-0.40
2022-12-14T21:30:00.522Z,-0.50
2022-12-14T21:32:27.531Z,-0.50
2022-12-14T21:34:54.234Z,-0.50
2022-12-14T21:37:21.091Z,-0.60
2022-12-14T21:39:54.102Z,-0.60
2022-12-14T21:42:23.292Z,-0.70
2022-12-14T21:44:51.053Z,-0.70
2022-12-14T21:47:19.876Z,-0.80
2022-12-14T21:49:46.576Z,-0.80
2022-12-14T21:52:15.052Z,-0.80
2022-12-14T21:54:41.965Z,-0.90
2022-12-14T21:57:31.578Z,-0.90
2022-12-14T21:59:58.352Z,-1.00
2022-12-14T22:02:25.458Z,-1.00
2022-12-14T22:04:56.206Z,-1.10
2022-12-14T22:07:30.336Z,-1.10
2022-12-14T22:09:57.046Z,-1.20
2022-12-14T22:12:23.730Z,-1.20
2022-12-14T22:14:50.612Z,-1.20
2022-12-14T22:17:17.380Z,-1.30
2022-12-14T22:19:44.090Z,-1.40
2022-12-14T22:22:14.985Z,-1.40
2022-12-14T22:24:41.895Z,-1.40
2022-12-14T22:27:12.663Z,-1.40
2022-12-14T22:29:39.514Z,-1.40
2022-12-14T22:32:07.013Z,-1.40
2022-12-14T22:34:33.849Z,-1.40
2022-12-14T22:37:00.582Z,-1.40
2022-12-14T22:39:27.279Z,-1.50
2022-12-14T22:41:54.083Z,-1.50
2022-12-14T22:44:20.843Z,-1.40
2022-12-14T22:46:47.487Z,-1.40
2022-12-14T22:49:17.429Z,-1.40
2022-12-14T22:51:44.170Z,-1.40
2022-12-14T22:54:17.599Z,-1.40
2022-12-14T22:56:46.464Z,-1.40
2022-12-14T22:59:18.706Z,-1.40
2022-12-14T23:01:49.984Z,-1.50
2022-12-14T23:04:17.527Z,-1.50
2022-12-14T23:06:44.433Z,-1.60
2022-12-14T23:09:29.690Z,-1.60
2022-12-14T23:12:18.362Z,-1.60
2022-12-14T23:15:06.358Z,-1.70
2022-12-14T23:17:51.609Z,-1.70
2022-12-14T23:20:36.691Z,-1.80
2022-12-14T23:23:24.864Z,-1.80
2022-12-14T23:26:10.041Z,-1.80
2022-12-14T23:28:55.195Z,-1.90
2022-12-14T23:31:40.358Z,-1.90
2022-12-14T23:34:25.479Z,-2.00
2022-12-14T23:37:13.865Z,-2.10
2022-12-14T23:40:03.113Z,-2.10
2022-12-14T23:42:48.248Z,-2.20
2022-12-14T23:45:33.174Z,-2.30
2022-12-14T23:48:18.334Z,-2.30
2022-12-14T23:51:03.580Z,-2.30
2022-12-14T23:53:49.831Z,-2.40
2022-12-14T23:56:36.056Z,-2.40
2022-12-14T23:59:24.917Z,-2.50
